createdAt,value
2022-12-17T00:01:09.957Z,63.38
2022-12-17T00:04:09.635Z,64.30
2022-12-17T00:06:56.425Z,63.78
2022-12-17T00:09:45.754Z,62.72
2022-12-17T00:12:34.818Z,60.05
2022-12-17T00:15:20.589Z,68.15
2022-12-17T00:18:06.487Z,64.88
2022-12-17T00:20:52.291Z,58.90
2022-12-17T00:23:38.849Z,61.95
2022-12-17T00:26:25.418Z,65.40
2022-12-17T00:29:11.011Z,59.28
2022-12-17T00:31:57.197Z,63.97
2022-12-17T00:34:42.981Z,60.67
2022-12-17T00:37:29.216Z,59.60
2022-12-17T00:40:14.983Z,61.85
2022-12-17T00:43:00.703Z,60.58
2022-12-17T00:45:46.534Z,54.20
2022-12-17T00:48:32.295Z,66.93
2022-12-17T00:51:17.963Z,51.83
2022-12-17T00:54:04.057Z,51.30
2022-12-17T00:56:49.743Z,50.38
2022-12-17T00:59:35.407Z,50.75
2022-12-17T01:02:21.206Z,53.40
2022-12-17T01:05:07.358Z,53.08
2022-12-17T01:07:53.320Z,55.58
2022-12-17T01:10:42.049Z,54.88
2022-12-17T01:13:30.776Z,59.08
2022-12-17T01:16:25.384Z,53.45
2022-12-17T01:19:11.578Z,52.38
2022-12-17T01:21:57.857Z,55.80
2022-12-17T01:24:44.070Z,58.42
2022-12-17T01:27:30.154Z,60.20
2022-12-17T01:30:15.973Z,54.38
2022-12-17T01:33:02.015Z,53.58
2022-12-17T01:35:47.756Z,57.15
2022-12-17T01:38:36.165Z,59.55
2022-12-17T01:41:23.795Z,53.88
2022-12-17T01:44:10.204Z,60.05
2022-12-17T01:47:00.933Z,55.38
2022-12-17T01:49:47.467Z,64.88
2022-12-17T01:52:35.969Z,55.15
2022-12-17T01:55:24.169Z,60.92
2022-12-17T01:58:10.187Z,52.58
2022-12-17T02:00:56.022Z,56.13
2022-12-17T02:03:41.730Z,56.35
2022-12-17T02:06:40.675Z,55.85
2022-12-17T02:09:38.967Z,56.95
2022-12-17T02:12:44.930Z,55.58
2022-12-17T02:16:00.180Z,58.83
2022-12-17T02:18:54.006Z,61.10
2022-12-17T02:21:41.861Z,64.65
2022-12-17T02:25:11.982Z,65.32
2022-12-17T02:27:57.646Z,60.78
2022-12-17T02:30:43.513Z,63.83
2022-12-17T02:33:32.471Z,61.10
2022-12-17T02:36:25.318Z,61.38
2022-12-17T02:39:11.401Z,56.83
2022-12-17T02:42:09.554Z,57.45
2022-12-17T02:44:57.462Z,67.10
2022-12-17T02:47:44.312Z,59.38
2022-12-17T02:50:31.504Z,61.55
2022-12-17T02:53:22.199Z,65.38
2022-12-17T02:56:07.929Z,65.60
2022-12-17T02:58:56.218Z,60.97
2022-12-17T03:01:42.187Z,59.67
2022-12-17T03:04:28.015Z,59.95
2022-12-17T03:07:13.634Z,59.00
2022-12-17T03:10:01.289Z,64.00
2022-12-17T03:12:48.946Z,61.33
2022-12-17T03:15:34.481Z,53.17
2022-12-17T03:18:20.160Z,60.25
2022-12-17T03:21:05.809Z,61.42
2022-12-17T03:23:51.621Z,59.90
2022-12-17T03:26:37.522Z,67.50
2022-12-17T03:29:23.206Z,64.63
2022-12-17T03:32:08.935Z,61.60
2022-12-17T03:34:54.602Z,56.97
2022-12-17T03:37:40.224Z,68.28
2022-12-17T03:40:26.612Z,62.08
2022-12-17T03:43:12.234Z,59.22
2022-12-17T03:45:58.103Z,57.55
2022-12-17T03:48:43.880Z,56.90
2022-12-17T03:51:29.663Z,65.80
2022-12-17T03:54:15.563Z,60.90
2022-12-17T03:57:01.150Z,59.33
2022-12-17T03:59:47.162Z,64.45
2022-12-17T04:02:32.964Z,59.22
2022-12-17T04:05:20.456Z,65.13
2022-12-17T04:08:06.922Z,56.65
2022-12-17T04:10:52.599Z,61.17
2022-12-17T04:13:41.323Z,63.60
2022-12-17T04:16:28.666Z,57.95
2022-12-17T04:19:14.482Z,60.85
2022-12-17T04:22:00.168Z,61.67
2022-12-17T04:24:45.842Z,64.22
2022-12-17T04:27:31.498Z,62.10
2022-12-17T04:30:16.984Z,61.20
2022-12-17T04:33:02.933Z,56.90
2022-12-17T04:35:48.787Z,64.65
2022-12-17T04:38:34.489Z,73.53
2022-12-17T04:41:20.197Z,68.85
2022-12-17T04:44:05.755Z,65.53
2022-12-17T04:46:51.441Z,66.97
2022-12-17T04:49:37.200Z,69.45
2022-12-17T04:52:22.845Z,70.90
2022-12-17T04:55:08.660Z,65.50
2022-12-17T04:57:54.482Z,63.97
2022-12-17T05:00:40.628Z,66.22
2022-12-17T05:03:31.331Z,71.57
2022-12-17T05:06:17.564Z,63.30
2022-12-17T05:09:03.768Z,60.97
2022-12-17T05:11:50.103Z,65.30
2022-12-17T05:14:36.237Z,66.65
2022-12-17T05:17:22.370Z,64.57
2022-12-17T05:20:08.247Z,72.28
2022-12-17T05:22:53.887Z,66.90
2022-12-17T05:25:39.567Z,61.17
2022-12-17T05:28:25.299Z,66.53
2022-12-17T05:31:14.357Z,71.25
2022-12-17T05:34:00.885Z,69.32
2022-12-17T05:36:47.162Z,67.15
2022-12-17T05:39:32.727Z,74.57
2022-12-17T05:42:18.677Z,69.07
2022-12-17T05:45:04.384Z,69.05
2022-12-17T05:47:49.968Z,68.43
2022-12-17T05:50:36.036Z,70.43
2022-12-17T05:53:25.307Z,74.28
2022-12-17T05:56:12.616Z,65.03
2022-12-17T05:58:58.875Z,68.38
2022-12-17T06:01:44.641Z,63.08
2022-12-17T06:04:44.066Z,69.95
2022-12-17T06:07:29.952Z,60.85
2022-12-17T06:10:15.655Z,71.07
2022-12-17T06:13:01.587Z,65.57
2022-12-17T06:15:47.392Z,64.07
2022-12-17T06:18:33.286Z,75.63
2022-12-17T06:21:19.177Z,66.30
2022-12-17T06:24:04.942Z,67.40
2022-12-17T06:26:50.796Z,68.50
2022-12-17T06:29:36.531Z,61.47
2022-12-17T06:32:22.525Z,61.80
2022-12-17T06:35:08.364Z,61.33
2022-12-17T06:37:54.117Z,60.08
2022-12-17T06:40:39.993Z,69.40
2022-12-17T06:43:40.958Z,60.85
2022-12-17T06:46:26.653Z,69.27
2022-12-17T06:49:12.619Z,66.63
2022-12-17T06:51:58.322Z,63.97
2022-12-17T06:54:44.226Z,64.38
2022-12-17T06:57:29.853Z,66.38
2022-12-17T07:00:15.641Z,67.35
2022-12-17T07:03:01.602Z,62.95
2022-12-17T07:05:47.195Z,68.55
2022-12-17T07:08:33.134Z,72.40
2022-12-17T07:11:19.376Z,59.47
2022-12-17T07:14:05.762Z,65.22
2022-12-17T07:16:51.888Z,64.78
2022-12-17T07:19:37.865Z,65.45
2022-12-17T07:22:23.412Z,69.82
2022-12-17T07:25:09.208Z,63.80
2022-12-17T07:27:54.770Z,71.07
2022-12-17T07:30:40.596Z,66.18
2022-12-17T07:33:28.856Z,61.67
2022-12-17T07:36:14.974Z,73.53
2022-12-17T07:39:00.887Z,66.35
2022-12-17T07:41:46.414Z,66.70
2022-12-17T07:44:32.609Z,64.93
2022-12-17T07:47:18.217Z,57.95
2022-12-17T07:50:03.811Z,66.28
2022-12-17T07:52:49.494Z,58.20
2022-12-17T07:55:35.282Z,54.13
2022-12-17T07:58:23.877Z,55.72
2022-12-17T08:01:10.316Z,65.20
2022-12-17T08:03:56.324Z,64.57
2022-12-17T08:06:42.139Z,60.63
2022-12-17T08:09:28.001Z,53.20
2022-12-17T08:12:13.564Z,60.65
2022-12-17T08:14:59.479Z,54.63
2022-12-17T08:17:45.562Z,53.53
2022-12-17T08:20:31.653Z,56.80
2022-12-17T08:23:22.160Z,59.33
2022-12-17T08:26:08.364Z,54.88
2022-12-17T08:28:54.525Z,57.28
2022-12-17T08:31:42.704Z,58.97
2022-12-17T08:34:28.500Z,61.40
2022-12-17T08:37:14.734Z,59.13
2022-12-17T08:40:00.456Z,57.10
2022-12-17T08:42:46.078Z,61.47
2022-12-17T08:45:31.779Z,57.42
2022-12-17T08:48:25.519Z,55.58
2022-12-17T08:51:12.314Z,59.20
2022-12-17T08:53:57.946Z,61.25
2022-12-17T08:56:44.181Z,54.88
2022-12-17T08:59:30.272Z,60.63
2022-12-17T09:02:16.214Z,57.63
2022-12-17T09:05:02.044Z,58.33
2022-12-17T09:07:48.312Z,49.88
2022-12-17T09:10:35.955Z,55.20
2022-12-17T09:13:22.699Z,56.53
2022-12-17T09:16:15.677Z,57.65
2022-12-17T09:19:02.044Z,59.95
2022-12-17T09:21:50.022Z,54.50
2022-12-17T09:24:35.803Z,54.42
2022-12-17T09:27:21.893Z,53.95
2022-12-17T09:30:07.781Z,54.75
2022-12-17T09:32:53.349Z,55.83
2022-12-17T09:35:39.034Z,52.17
2022-12-17T09:38:24.752Z,55.85
2022-12-17T09:41:10.697Z,56.35
2022-12-17T09:44:24.832Z,51.17
2022-12-17T09:47:38.350Z,53.58
2022-12-17T09:50:30.789Z,59.92
2022-12-17T09:53:19.708Z,54.00
2022-12-17T09:56:10.031Z,57.72
2022-12-17T09:58:59.785Z,56.13
2022-12-17T10:01:51.636Z,51.38
2022-12-17T10:07:35.920Z,49.92
2022-12-17T10:10:34.835Z,52.20
2022-12-17T10:13:20.471Z,53.67
2022-12-17T10:16:06.076Z,52.90
2022-12-17T10:18:51.954Z,56.25
2022-12-17T10:21:38.606Z,59.25
2022-12-17T10:24:26.231Z,54.58
2022-12-17T10:27:12.001Z,50.35
2022-12-17T10:30:00.187Z,59.72
2022-12-17T10:32:46.845Z,56.28
2022-12-17T10:35:46.036Z,54.95
2022-12-17T10:38:39.746Z,60.08
2022-12-17T10:41:48.369Z,49.22
2022-12-17T10:44:46.822Z,48.95
2022-12-17T10:47:41.949Z,51.17
2022-12-17T10:50:35.770Z,48.83
2022-12-17T10:53:33.675Z,49.70
2022-12-17T10:56:20.241Z,50.72
2022-12-17T10:59:12.028Z,45.38
2022-12-17T11:02:00.264Z,44.15
2022-12-17T11:04:46.162Z,50.72
2022-12-17T11:07:39.143Z,51.83
2022-12-17T11:10:39.333Z,48.08
2022-12-17T11:13:31.135Z,46.63
2022-12-17T11:16:18.814Z,45.20
2022-12-17T11:19:10.818Z,44.65
2022-12-17T11:22:07.762Z,50.35
2022-12-17T11:25:24.830Z,49.38
2022-12-17T11:28:20.621Z,45.63
2022-12-17T11:31:19.685Z,49.50
2022-12-17T11:34:34.562Z,45.88
2022-12-17T11:37:32.898Z,50.15
2022-12-17T11:40:57.497Z,51.42
2022-12-17T11:43:51.394Z,50.22
2022-12-17T11:46:49.144Z,43.30
2022-12-17T11:50:04.489Z,44.83
2022-12-17T11:53:06.184Z,44.55
2022-12-17T11:56:13.254Z,53.67
2022-12-17T11:59:28.708Z,45.45
2022-12-17T12:03:13.241Z,47.38
2022-12-17T12:06:04.479Z,45.50
2022-12-17T12:09:09.177Z,44.63
2022-12-17T12:12:27.689Z,45.78
2022-12-17T12:16:10.983Z,46.08
2022-12-17T12:19:11.903Z,44.08
2022-12-17T12:22:18.077Z,45.60
2022-12-17T12:25:47.539Z,49.50
2022-12-17T12:28:40.220Z,47.05
2022-12-17T12:31:42.117Z,48.45
2022-12-17T12:34:43.176Z,57.78
2022-12-17T12:37:35.648Z,51.10
2022-12-17T12:40:36.968Z,45.67
2022-12-17T12:43:42.696Z,47.78
2022-12-17T12:46:34.945Z,47.72
2022-12-17T12:52:14.319Z,48.22
2022-12-17T12:55:06.209Z,48.13
2022-12-17T12:58:14.053Z,45.17
2022-12-17T13:01:06.017Z,52.40
2022-12-17T13:03:56.506Z,46.85
2022-12-17T13:06:49.260Z,45.53
2022-12-17T13:09:16.815Z,45.30
2022-12-17T13:12:00.019Z,44.13
2022-12-17T13:14:48.690Z,44.13
2022-12-17T13:17:18.905Z,46.92
2022-12-17T13:20:07.728Z,47.85
2022-12-17T13:22:35.021Z,46.53
2022-12-17T13:25:22.566Z,48.95
2022-12-17T13:27:50.763Z,47.05
2022-12-17T13:30:18.067Z,49.55
2022-12-17T13:32:58.324Z,47.33
2022-12-17T13:35:48.968Z,47.78
2022-12-17T13:38:35.347Z,48.50
2022-12-17T13:41:09.825Z,47.53
2022-12-17T13:43:58.830Z,46.95
2022-12-17T13:46:36.164Z,47.45
2022-12-17T13:49:06.764Z,48.10
2022-12-17T13:51:35.377Z,62.05
2022-12-17T13:54:04.673Z,49.70
2022-12-17T13:56:36.201Z,48.03
2022-12-17T13:59:09.300Z,47.88
2022-12-17T14:01:49.061Z,49.90
2022-12-17T14:04:28.158Z,47.85
2022-12-17T14:07:03.339Z,48.33
2022-12-17T14:09:42.864Z,44.28
2022-12-17T14:12:22.293Z,46.58
2022-12-17T14:15:01.309Z,45.63
2022-12-17T14:17:36.111Z,45.92
2022-12-17T14:20:12.822Z,44.10
2022-12-17T14:22:50.778Z,43.67
2022-12-17T14:25:29.504Z,46.53
2022-12-17T14:28:00.502Z,42.67
2022-12-17T14:31:02.507Z,46.97
2022-12-17T14:33:34.064Z,50.15
2022-12-17T14:36:06.520Z,44.95
2022-12-17T14:38:39.166Z,48.97
2022-12-17T14:41:31.841Z,49.33
2022-12-17T14:44:00.597Z,49.50
2022-12-17T14:46:29.531Z,51.85
2022-12-17T14:49:02.627Z,48.88
2022-12-17T14:51:40.250Z,53.25
2022-12-17T14:54:32.270Z,50.78
2022-12-17T14:57:00.587Z,55.70
2022-12-17T14:59:35.041Z,55.17
2022-12-17T15:02:12.538Z,54.65
2022-12-17T15:04:40.522Z,65.55
2022-12-17T15:07:10.895Z,63.25
2022-12-17T15:09:42.192Z,72.88
2022-12-17T15:12:10.168Z,68.57
2022-12-17T15:14:37.430Z,68.88
2022-12-17T15:17:05.463Z,72.18
2022-12-17T15:19:32.720Z,73.35
2022-12-17T15:21:59.998Z,73.07
2022-12-17T15:24:27.249Z,74.82
2022-12-17T15:26:55.309Z,71.28
2022-12-17T15:29:22.586Z,71.93
2022-12-17T15:31:50.060Z,67.20
2022-12-17T15:34:17.308Z,68.82
2022-12-17T15:36:44.488Z,74.07
2022-12-17T15:39:11.774Z,76.70
2022-12-17T15:41:57.443Z,76.03
2022-12-17T15:44:24.692Z,75.45
2022-12-17T15:46:52.001Z,84.68
2022-12-17T15:49:19.190Z,77.10
2022-12-17T15:51:47.071Z,77.20
2022-12-17T15:54:14.350Z,69.57
2022-12-17T15:56:41.569Z,82.00
2022-12-17T15:59:08.847Z,81.03
2022-12-17T16:01:36.734Z,83.15
2022-12-17T16:04:04.308Z,73.25
2022-12-17T16:06:31.553Z,76.10
2022-12-17T16:08:58.851Z,77.88
2022-12-17T16:11:26.028Z,87.03
2022-12-17T16:13:56.806Z,84.05
2022-12-17T16:16:24.714Z,94.17
2022-12-17T16:18:52.399Z,99.50
2022-12-17T16:21:19.661Z,83.95
2022-12-17T16:23:46.937Z,80.00
2022-12-17T16:26:14.313Z,80.43
2022-12-17T16:28:41.673Z,79.20
2022-12-17T16:31:14.429Z,83.55
2022-12-17T16:33:43.840Z,79.75
2022-12-17T16:36:18.385Z,85.85
2022-12-17T16:38:51.836Z,86.93
2022-12-17T16:41:20.215Z,75.78
2022-12-17T16:43:48.402Z,92.13
2022-12-17T16:46:36.994Z,81.72
2022-12-17T16:49:05.985Z,82.25
2022-12-17T16:51:33.708Z,81.03
2022-12-17T16:54:05.599Z,93.07
2022-12-17T16:56:38.139Z,87.25
2022-12-17T16:59:08.418Z,84.05
2022-12-17T17:01:37.387Z,99.82
2022-12-17T17:04:07.366Z,83.35
2022-12-17T17:06:42.404Z,95.82
2022-12-17T17:09:09.686Z,96.43
2022-12-17T17:11:37.364Z,101.13
2022-12-17T17:14:05.536Z,105.43
2022-12-17T17:16:34.345Z,104.68
2022-12-17T17:19:02.176Z,93.88
2022-12-17T17:21:34.698Z,92.20
2022-12-17T17:24:20.924Z,89.53
2022-12-17T17:26:50.195Z,89.10
2022-12-17T17:29:18.072Z,92.53
2022-12-17T17:32:09.340Z,92.00
2022-12-17T17:34:33.129Z,100.03
2022-12-17T17:37:00.442Z,99.28
2022-12-17T17:39:27.772Z,97.03
2022-12-17T17:41:55.037Z,104.63
2022-12-17T17:44:22.232Z,105.85
2022-12-17T17:46:49.852Z,99.22
2022-12-17T17:49:17.595Z,97.20
2022-12-17T17:52:09.575Z,100.10
2022-12-17T17:54:33.336Z,100.70
2022-12-17T17:57:01.019Z,111.10
2022-12-17T17:59:33.285Z,99.53
2022-12-17T18:02:02.488Z,93.72
2022-12-17T18:04:30.453Z,101.13
2022-12-17T18:09:45.054Z,92.80
2022-12-17T18:12:30.854Z,98.63
2022-12-17T18:15:14.814Z,95.85
2022-12-17T18:17:45.427Z,99.10
2022-12-17T18:20:13.687Z,97.18
2022-12-17T18:22:41.122Z,100.97
2022-12-17T18:25:08.600Z,103.38
2022-12-17T18:27:36.138Z,100.90
2022-12-17T18:30:03.930Z,100.63
2022-12-17T18:32:31.198Z,112.78
2022-12-17T18:34:58.507Z,108.10
2022-12-17T18:37:25.806Z,101.55
2022-12-17T18:39:53.087Z,109.32
2022-12-17T18:42:38.691Z,98.43
2022-12-17T18:45:06.507Z,109.00
2022-12-17T18:47:33.864Z,137.48
2022-12-17T18:50:01.068Z,212.25
2022-12-17T18:52:28.671Z,159.32
2022-12-17T18:54:55.915Z,164.68
2022-12-17T18:57:23.169Z,140.25
2022-12-17T18:59:50.562Z,129.50
2022-12-17T19:02:17.900Z,150.00
2022-12-17T19:04:45.234Z,153.18
2022-12-17T19:07:12.542Z,142.63
2022-12-17T19:09:40.612Z,133.93
2022-12-17T19:12:09.369Z,139.43
2022-12-17T19:14:37.291Z,132.63
2022-12-17T19:17:06.075Z,145.68
2022-12-17T19:19:33.881Z,170.68
2022-12-17T19:22:02.196Z,159.68
2022-12-17T19:24:30.308Z,177.27
2022-12-17T19:26:57.840Z,183.82
2022-12-17T19:29:25.202Z,190.48
2022-12-17T19:31:52.984Z,179.93
2022-12-17T19:34:20.956Z,175.05
2022-12-17T19:36:48.821Z,176.25
2022-12-17T19:39:19.765Z,180.18
2022-12-17T19:41:47.871Z,174.75
2022-12-17T19:44:17.443Z,170.68
2022-12-17T19:46:45.357Z,179.52
2022-12-17T19:49:14.174Z,174.07
2022-12-17T19:51:43.353Z,151.60
2022-12-17T19:54:13.334Z,160.10
2022-12-17T19:56:42.717Z,146.90
2022-12-17T19:59:11.667Z,152.82
2022-12-17T20:01:44.955Z,155.48
2022-12-17T20:04:14.122Z,159.75
2022-12-17T20:06:42.249Z,165.10
2022-12-17T20:09:10.088Z,157.30
2022-12-17T20:11:37.891Z,155.07
2022-12-17T20:14:17.485Z,157.80
2022-12-17T20:16:50.855Z,154.63
2022-12-17T20:19:21.603Z,163.27
2022-12-17T20:21:51.046Z,145.65
2022-12-17T20:24:18.748Z,139.63
2022-12-17T20:26:48.960Z,141.25
2022-12-17T20:29:16.277Z,155.10
2022-12-17T20:31:49.382Z,147.27
2022-12-17T20:34:18.980Z,141.95
2022-12-17T20:36:49.819Z,145.25
2022-12-17T20:39:20.690Z,144.98
2022-12-17T20:41:51.686Z,162.05
2022-12-17T20:44:19.418Z,139.65
2022-12-17T20:46:46.684Z,146.85
2022-12-17T20:49:14.837Z,137.07
2022-12-17T20:51:42.296Z,142.43
2022-12-17T20:54:10.306Z,131.73
2022-12-17T20:56:40.202Z,132.20
2022-12-17T20:59:09.125Z,150.63
2022-12-17T21:01:37.273Z,134.70
2022-12-17T21:04:08.819Z,126.75
2022-12-17T21:06:41.613Z,131.95
2022-12-17T21:09:09.274Z,128.02
2022-12-17T21:11:38.046Z,122.00
2022-12-17T21:14:08.005Z,114.78
2022-12-17T21:16:36.963Z,119.03
2022-12-17T21:19:05.801Z,108.63
2022-12-17T21:21:35.647Z,103.97
2022-12-17T21:24:03.151Z,111.82
2022-12-17T21:26:32.832Z,110.53
2022-12-17T21:29:01.205Z,106.18
2022-12-17T21:31:31.248Z,98.63
2022-12-17T21:34:01.045Z,106.53
2022-12-17T21:36:31.011Z,108.57
2022-12-17T21:38:59.170Z,105.97
2022-12-17T21:41:30.857Z,95.65
2022-12-17T21:46:28.409Z,96.07
2022-12-17T21:48:57.556Z,94.30
2022-12-17T21:51:25.393Z,104.72
2022-12-17T21:53:55.270Z,98.13
2022-12-17T21:56:23.969Z,102.82
2022-12-17T21:58:57.502Z,105.45
2022-12-17T22:01:27.874Z,110.55
2022-12-17T22:03:58.144Z,104.93
2022-12-17T22:06:28.719Z,113.57
2022-12-17T22:09:04.208Z,110.63
2022-12-17T22:11:35.268Z,116.65
2022-12-17T22:14:07.455Z,122.50
2022-12-17T22:16:46.793Z,123.28
2022-12-17T22:19:22.239Z,121.70
2022-12-17T22:21:56.048Z,134.50
2022-12-17T22:24:25.976Z,143.68
2022-12-17T22:27:00.316Z,170.65
2022-12-17T22:29:47.098Z,143.57
2022-12-17T22:32:33.135Z,134.63
2022-12-17T22:36:24.909Z,141.40
2022-12-17T22:40:21.582Z,142.25
2022-12-17T22:44:29.878Z,142.45
2022-12-17T22:44:38.098Z,160.68
2022-12-17T22:46:17.762Z,138.18
2022-12-17T22:48:45.394Z,144.63
2022-12-17T22:51:25.499Z,145.65
2022-12-17T22:54:09.138Z,142.80
2022-12-17T22:57:34.426Z,133.30
2022-12-17T22:59:26.774Z,135.38
2022-12-17T23:01:54.143Z,123.95
2022-12-17T23:04:21.550Z,129.35
2022-12-17T23:06:48.827Z,105.18
2022-12-17T23:09:19.412Z,118.90
2022-12-17T23:11:48.826Z,105.75
2022-12-17T23:14:17.211Z,86.80
2022-12-17T23:16:44.928Z,82.32
2022-12-17T23:19:12.976Z,75.05
2022-12-17T23:21:40.355Z,69.45
2022-12-17T23:24:08.167Z,73.47
2022-12-17T23:26:37.125Z,67.43
2022-12-17T23:29:07.445Z,69.13
2022-12-17T23:31:40.442Z,73.82
2022-12-17T23:34:09.202Z,70.22
2022-12-17T23:36:36.705Z,61.58
2022-12-17T23:39:04.723Z,64.53
2022-12-17T23:41:32.486Z,64.70
2022-12-17T23:44:00.617Z,64.15
2022-12-17T23:46:30.459Z,64.93
2022-12-17T23:48:58.284Z,65.85
2022-12-17T23:51:26.179Z,60.75
2022-12-17T23:53:53.405Z,61.97
2022-12-17T23:56:24.046Z,70.75
2022-12-17T23:58:57.280Z,67.53
